Time;durP1;ratioP1;P1;durP2;ratioP2;P2;SDS_P1;SDS_P2;PMS_P1;PMS_P2;Temp;Humidity;BMP_temperature;BMP_pressure;BME280_temperature;BME280_humidity;BME280_pressure;Samples;Min_cycle;Max_cycle;Signal;HPM_P1;HPM_P2
2022/03/03 00:00:20;;;;;;;3.00;1.90;;;-3.00;1.40;;;-2.66;100.00;95586.47;646930;216;31658;-76
2022/03/03 00:03:08;;;;;;;2.10;1.50;;;-3.10;1.40;;;-2.82;100.00;95590.59;646756;212;31536;-77
2022/03/03 00:05:50;;;;;;;11.50;3.58;;;-3.30;1.40;;;-2.82;100.00;95584.67;619305;225;31962;-77
2022/03/03 00:08:32;;;;;;;2.30;1.58;;;-3.30;1.40;;;-2.83;100.00;95582.61;618638;222;32093;-77
2022/03/03 00:11:14;;;;;;;4.25;2.03;;;-3.30;1.40;;;-2.75;100.00;95585.20;647018;212;31590;-77
2022/03/03 00:13:55;;;;;;;3.10;1.12;;;-3.10;1.40;;;-2.76;100.00;95581.13;646860;216;31543;-77
2022/03/03 00:16:39;;;;;;;5.10;1.70;;;-3.20;1.40;;;-2.76;100.00;95583.66;641438;217;31745;-74
2022/03/03 00:19:24;;;;;;;3.30;2.00;;;-3.20;1.40;;;-2.91;100.00;95587.73;619511;222;31872;-76
2022/03/03 00:22:12;;;;;;;4.78;2.10;;;-3.50;1.40;;;-3.06;100.00;95585.30;647406;212;31593;-74
2022/03/03 00:25:00;;;;;;;4.20;2.87;;;-3.80;1.40;;;-3.22;100.00;95584.72;647960;212;32128;-77
2022/03/03 00:27:47;;;;;;;4.00;2.40;;;-3.80;1.40;;;-3.21;100.00;95586.49;646523;216;32137;-77
2022/03/03 00:30:29;;;;;;;1.95;1.85;;;-3.90;1.40;;;-3.09;100.00;95583.26;647370;212;31695;-74
2022/03/03 00:35:54;;;;;;;1.90;1.40;;;-3.90;1.40;;;-3.17;100.00;95587.22;647591;216;31568;-76
2022/03/03 00:38:36;;;;;;;1.50;1.30;;;-3.70;1.40;;;-3.17;100.00;95589.86;645730;216;31555;-76
2022/03/03 00:41:23;;;;;;;2.50;2.30;;;-3.60;1.40;;;-3.23;100.00;95594.59;648590;216;31587;-77
2022/03/03 00:44:11;;;;;;;2.33;1.20;;;-3.80;1.40;;;-3.26;100.00;95595.54;646529;216;32178;-73
2022/03/03 00:46:59;;;;;;;5.10;1.77;;;-3.90;1.40;;;-3.30;100.00;95594.27;647173;212;31606;-77
2022/03/03 00:49:47;;;;;;;6.03;2.45;;;-4.00;1.40;;;-3.29;100.00;95593.27;646497;212;31707;-73
2022/03/03 00:52:28;;;;;;;3.30;1.40;;;-4.10;1.40;;;-3.62;100.00;95591.25;646646;216;31659;-74
2022/03/03 00:55:12;;;;;;;3.80;2.00;;;-4.20;1.40;;;-3.82;100.00;95600.98;646081;216;31527;-78
2022/03/03 00:58:03;;;;;;;2.70;1.50;;;-4.50;1.40;;;-3.91;100.00;95598.52;647646;212;32139;-74
2022/03/03 01:00:45;;;;;;;3.75;2.28;;;-4.60;1.40;;;-4.07;100.00;95598.89;647957;212;32134;-75
2022/03/03 01:03:26;;;;;;;2.90;1.65;;;-4.60;1.40;;;-4.09;100.00;95604.74;619699;222;31915;-75
2022/03/03 01:06:08;;;;;;;3.15;1.92;;;-4.80;1.40;;;-4.03;100.00;95601.41;646477;212;31607;-76
2022/03/03 01:08:50;;;;;;;1.70;1.50;;;-4.70;1.40;;;-3.91;100.00;95599.20;646289;212;42296;-75
2022/03/03 01:11:31;;;;;;;10.38;2.45;;;-4.60;1.40;;;-3.96;100.00;95600.73;646423;212;31594;-76
2022/03/03 01:14:13;;;;;;;1.60;1.40;;;-4.60;1.40;;;-4.06;100.00;95598.92;647309;216;31570;-76
2022/03/03 01:17:05;;;;;;;1.75;1.50;;;-4.60;1.40;;;-4.04;100.00;95599.09;619106;225;32039;-77
2022/03/03 01:19:47;;;;;;;1.33;1.23;;;-4.70;1.40;;;-4.31;100.00;95590.61;646911;212;31541;-77
2022/03/03 01:22:28;;;;;;;5.20;1.83;;;-4.90;1.40;;;-4.41;100.00;95589.45;647063;216;42150;-77
2022/03/03 01:25:17;;;;;;;1.37;1.27;;;-5.10;1.40;;;-4.48;100.00;95587.55;646197;212;31733;-74
2022/03/03 01:27:59;;;;;;;1.55;1.02;;;-5.20;1.40;;;-4.56;100.00;95589.70;620309;226;32051;-77
2022/03/03 01:35:55;;;;;;;2.15;1.45;;;-5.00;1.40;;;-4.69;100.00;95582.48;646289;216;31591;-77
2022/03/03 01:38:37;;;;;;;1.52;1.20;;;-5.10;1.40;;;-4.63;100.00;95579.42;619704;226;32049;-77
2022/03/03 01:41:22;;;;;;;2.05;1.37;;;-5.00;1.40;;;-4.47;100.00;95576.11;621176;226;31895;-77
2022/03/03 01:44:10;;;;;;;0.90;0.73;;;-4.90;1.40;;;-4.53;100.00;95578.80;619284;226;32086;-75
2022/03/03 01:47:00;;;;;;;1.35;1.00;;;-5.00;1.40;;;-4.45;100.00;95570.20;648214;212;42256;-77
2022/03/03 01:49:43;;;;;;;2.83;2.10;;;-4.90;1.40;;;-4.28;100.00;95561.34;645211;216;31667;-76
2022/03/03 01:52:27;;;;;;;4.68;1.70;;;-4.50;1.40;;;-4.19;100.00;95557.83;646744;216;31553;-75
2022/03/03 01:55:11;;;;;;;3.20;1.67;;;-4.50;1.40;;;-4.21;100.00;95552.31;645364;216;32317;-73
2022/03/03 01:57:53;;;;;;;2.10;1.05;;;-4.50;1.40;;;-4.16;100.00;95551.69;646877;212;31563;-75
2022/03/03 02:00:35;;;;;;;1.30;1.15;;;-4.40;1.40;;;-4.08;100.00;95548.66;646761;216;42412;-72
2022/03/03 02:03:17;;;;;;;4.55;1.67;;;-4.30;1.40;;;-4.05;100.00;95540.88;619804;222;33051;-75
2022/03/03 02:05:59;;;;;;;1.42;1.33;;;-4.30;1.40;;;-4.01;100.00;95528.69;645702;212;32157;-74
2022/03/03 02:08:41;;;;;;;1.65;1.55;;;-4.40;1.40;;;-3.95;100.00;95525.19;647279;212;32109;-76
2022/03/03 02:11:22;;;;;;;6.90;2.10;;;-4.30;1.40;;;-3.90;100.00;95527.56;647400;212;31646;-76
2022/03/03 02:14:07;;;;;;;1.60;1.27;;;-4.30;1.40;;;-3.78;100.00;95525.11;620038;226;42690;-77
2022/03/03 02:16:51;;;;;;;2.30;1.52;;;-4.10;1.40;;;-4.07;100.00;95523.05;647060;216;31926;-76
2022/03/03 02:19:32;;;;;;;2.25;0.93;;;-4.50;1.40;;;-4.04;100.00;95517.09;631951;217;42914;-75
2022/03/03 02:22:17;;;;;;;1.80;1.10;;;-4.30;1.40;;;-4.01;100.00;95518.80;646114;216;31561;-76
2022/03/03 02:25:01;;;;;;;4.22;1.30;;;-4.30;1.40;;;-4.02;100.00;95520.34;620874;226;42991;-78
2022/03/03 02:29:47;;;;;;;3.90;1.40;;;-4.50;1.40;;;-4.03;100.00;95521.36;647081;212;31620;-75
2022/03/03 02:32:32;;;;;;;1.30;1.20;;;-4.40;1.40;;;-4.06;100.00;95520.91;646867;212;42728;-74
2022/03/03 02:35:59;;;;;;;1.90;1.80;;;-4.50;1.40;;;-4.12;100.00;95523.56;646986;212;32140;-76
2022/03/03 02:38:47;;;;;;;0.80;0.70;;;-4.70;1.40;;;-4.32;100.00;95526.37;620585;226;31918;-77
2022/03/03 02:41:33;;;;;;;1.45;0.82;;;-4.90;1.40;;;-4.35;100.00;95521.61;649221;216;31550;-77
2022/03/03 02:44:22;;;;;;;1.55;1.30;;;-4.80;1.40;;;-4.48;100.00;95520.54;632922;221;31746;-74
2022/03/03 02:47:10;;;;;;;1.30;1.20;;;-4.90;1.40;;;-4.39;100.00;95511.82;646957;216;42280;-77
2022/03/03 02:49:58;;;;;;;1.50;1.12;;;-4.70;1.40;;;-4.39;100.00;95508.55;646832;216;42132;-73
2022/03/03 02:52:40;;;;;;;2.15;1.95;;;-4.70;1.40;;;-4.43;100.00;95515.02;646724;216;31525;-74
2022/03/03 02:55:21;;;;;;;1.55;1.10;;;-4.70;1.40;;;-4.42;100.00;95503.87;631098;220;31656;-75
2022/03/03 02:58:05;;;;;;;2.12;1.30;;;-4.60;1.40;;;-4.28;100.00;95503.28;631814;221;32030;-75
2022/03/03 03:00:51;;;;;;;1.60;1.00;;;-4.50;1.40;;;-4.24;100.00;95510.27;646902;216;42225;-77
2022/03/03 03:06:19;;;;;;;2.05;1.95;;;-4.60;1.40;;;-4.33;100.00;95511.91;615428;226;32024;-77
2022/03/03 03:11:43;;;;;;;3.15;1.00;;;-4.70;1.40;;;-4.36;100.00;95510.38;651784;216;42155;-77
2022/03/03 03:14:33;;;;;;;1.50;1.10;;;-4.60;1.40;;;-4.39;100.00;95513.09;632164;217;31730;-75
2022/03/03 03:17:15;;;;;;;2.10;1.00;;;-4.80;1.40;;;-4.38;100.00;95512.86;619269;226;32017;-73
2022/03/03 03:20:08;;;;;;;1.50;1.27;;;-4.80;1.40;;;-4.40;100.00;95512.69;647573;212;31628;-77
2022/03/03 03:22:55;;;;;;;1.00;0.90;;;-4.90;1.40;;;-4.48;100.00;95509.05;618418;226;43206;-75
2022/03/03 03:25:44;;;;;;;1.50;1.20;;;-4.90;1.40;;;-4.37;100.00;95500.41;647413;216;41747;-77
2022/03/03 03:28:27;;;;;;;2.60;1.90;;;-4.80;1.40;;;-4.34;100.00;95501.02;646993;216;31575;-73
2022/03/03 03:31:09;;;;;;;4.10;1.30;;;-4.50;1.40;;;-4.29;100.00;95500.14;646287;216;31704;-73
2022/03/03 03:35:52;;;;;;;1.55;1.02;;;-4.50;1.40;;;-4.34;100.00;95494.67;646037;212;31561;-75
2022/03/03 03:38:34;;;;;;;1.67;1.55;;;-4.50;1.40;;;-4.32;100.00;95501.46;646241;216;32127;-73
2022/03/03 03:41:16;;;;;;;1.35;1.25;;;-4.50;1.40;;;-4.39;100.00;95500.88;645786;212;31884;-75
2022/03/03 03:44:03;;;;;;;1.45;1.12;;;-4.70;1.40;;;-4.46;100.00;95500.59;647512;212;42788;-77
2022/03/03 03:46:51;;;;;;;0.60;0.60;;;-4.80;1.40;;;-4.48;100.00;95498.48;646878;216;31869;-73
2022/03/03 03:49:33;;;;;;;1.90;1.00;;;-4.90;1.40;;;-4.56;100.00;95495.92;646084;212;31621;-74
2022/03/03 03:52:21;;;;;;;0.88;0.80;;;-5.00;1.40;;;-4.65;100.00;95491.69;619074;226;42616;-77
2022/03/03 03:55:09;;;;;;;1.08;0.90;;;-5.20;1.40;;;-4.74;100.00;95489.30;645747;212;31892;-75
2022/03/03 03:58:08;;;;;;;1.80;1.70;;;-5.30;1.40;;;-4.91;100.00;95490.86;649585;216;42116;-77
2022/03/03 04:00:46;;;;;;;3.63;3.43;;;-5.50;1.40;;;-5.06;100.00;95483.81;645170;221;24606;-78
2022/03/03 04:03:33;;;;;;;3.60;0.97;;;-5.80;1.40;;;-5.09;100.00;95484.59;647525;216;32760;-74
2022/03/03 04:06:18;;;;;;;1.07;1.00;;;-5.80;1.40;;;-5.34;100.00;95479.13;646389;212;31522;-73
2022/03/03 04:09:00;;;;;;;2.50;1.10;;;-5.80;1.40;;;-5.41;100.00;95473.19;647314;212;31725;-73
2022/03/03 04:11:42;;;;;;;1.20;1.10;;;-5.90;1.40;;;-5.48;100.00;95463.45;647032;216;31557;-76
2022/03/03 04:14:30;;;;;;;2.35;1.35;;;-5.90;1.40;;;-5.34;100.00;95456.43;646755;216;31566;-77
2022/03/03 04:17:11;;;;;;;2.17;1.05;;;-5.80;1.40;;;-5.27;100.00;95463.16;646951;216;31649;-78
2022/03/03 04:19:55;;;;;;;1.95;1.40;;;-5.70;1.40;;;-5.31;100.00;95467.58;648110;216;31564;-76
2022/03/03 04:22:48;;;;;;;3.50;1.02;;;-5.80;1.40;;;-5.44;100.00;95471.30;646945;216;31546;-77
2022/03/03 04:25:33;;;;;;;1.00;1.00;;;-5.80;1.40;;;-5.51;100.00;95478.03;645277;212;32464;-74
2022/03/03 04:28:15;;;;;;;1.55;1.10;;;-6.00;1.40;;;-5.60;100.00;95472.22;647217;212;31593;-75
2022/03/03 04:30:56;;;;;;;3.40;1.08;;;-6.20;1.40;;;-5.59;100.00;95473.73;646664;216;31794;-75
2022/03/03 04:36:00;;;;;;;0.60;0.60;;;-6.20;1.40;;;-5.82;100.00;95470.61;646532;216;31603;-73
2022/03/03 04:38:42;;;;;;;1.85;1.20;;;-6.20;1.40;;;-5.89;100.00;95471.09;647180;216;31539;-74
2022/03/03 04:41:29;;;;;;;2.20;1.00;;;-6.20;1.40;;;-5.93;100.00;95464.38;648573;212;31869;-76
2022/03/03 04:44:11;;;;;;;1.70;1.35;;;-6.20;1.40;;;-5.77;100.00;95464.33;648471;212;42209;-77
2022/03/03 04:46:59;;;;;;;1.20;1.10;;;-6.00;1.40;;;-5.64;100.00;95460.63;645640;216;31567;-73
2022/03/03 04:49:41;;;;;;;2.40;1.10;;;-5.80;1.40;;;-5.53;100.00;95462.47;647565;212;31544;-75
2022/03/03 04:52:22;;;;;;;1.60;0.95;;;-5.80;1.40;;;-5.43;100.00;95459.41;647151;212;31597;-76
2022/03/03 04:55:07;;;;;;;0.80;0.70;;;-5.80;1.40;;;-5.58;100.00;95462.48;646733;212;31719;-77
2022/03/03 04:57:54;;;;;;;4.20;0.90;;;-6.00;1.40;;;-5.73;100.00;95459.35;645212;216;31589;-76
2022/03/03 05:00:36;;;;;;;1.58;1.48;;;-6.00;1.40;;;-5.71;100.00;95456.08;647334;216;31517;-74
2022/03/03 05:03:23;;;;;;;4.43;1.33;;;-6.10;1.40;;;-5.77;100.00;95457.52;619634;226;31917;-77
2022/03/03 05:06:14;;;;;;;0.90;0.80;;;-6.20;1.40;;;-5.77;100.00;95462.30;646526;216;31631;-73
2022/03/03 05:08:56;;;;;;;1.80;1.35;;;-6.20;1.40;;;-5.85;100.00;95462.34;645876;212;31593;-75
2022/03/03 05:11:40;;;;;;;1.10;1.10;;;-6.20;1.40;;;-5.87;100.00;95463.52;647342;216;31566;-77
2022/03/03 05:14:22;;;;;;;1.30;0.90;;;-6.30;1.40;;;-5.91;100.00;95462.12;619098;222;31866;-77
2022/03/03 05:17:10;;;;;;;1.80;1.30;;;-6.20;1.40;;;-5.91;100.00;95459.22;646795;212;31607;-73
2022/03/03 05:19:52;;;;;;;4.50;1.60;;;-6.30;1.40;;;-5.89;100.00;95456.65;646784;216;31598;-76
2022/03/03 05:22:33;;;;;;;1.27;0.98;;;-6.20;1.40;;;-5.83;100.00;95458.58;646779;216;32144;-76
2022/03/03 05:25:21;;;;;;;1.42;1.33;;;-6.10;1.40;;;-5.67;100.00;95456.87;648750;212;31942;-77
2022/03/03 05:28:03;;;;;;;1.40;1.30;;;-6.00;1.40;;;-5.68;100.00;95451.58;647187;216;31532;-78
2022/03/03 05:30:47;;;;;;;0.80;0.80;;;-5.90;1.40;;;-5.56;100.00;95445.13;649154;212;42149;-78
2022/03/03 05:35:58;;;;;;;2.10;1.17;;;-5.90;1.40;;;-5.59;100.00;95433.56;646639;216;31937;-75
2022/03/03 05:38:46;;;;;;;1.40;1.25;;;-5.80;1.40;;;-5.50;100.00;95431.67;646547;216;31564;-77
2022/03/03 05:41:34;;;;;;;1.80;1.05;;;-5.70;1.40;;;-5.35;100.00;95426.27;647486;216;31783;-75
2022/03/03 05:44:18;;;;;;;1.42;0.98;;;-5.40;1.40;;;-5.32;100.00;95417.09;647946;212;31574;-75
2022/03/03 05:47:06;;;;;;;0.90;0.90;;;-5.40;1.40;;;-5.19;100.00;95420.52;645260;216;32114;-73
2022/03/03 05:49:54;;;;;;;2.90;1.12;;;-5.30;1.40;;;-5.16;100.00;95424.03;647174;216;32105;-77
2022/03/03 05:52:36;;;;;;;0.80;0.80;;;-5.40;1.40;;;-5.18;100.00;95428.80;647525;212;31521;-77
2022/03/03 05:55:19;;;;;;;4.10;0.98;;;-5.40;1.40;;;-5.24;100.00;95431.80;646878;212;31451;-78
2022/03/03 05:58:07;;;;;;;1.73;1.12;;;-5.50;1.40;;;-5.35;100.00;95420.46;646587;216;31570;-73
2022/03/03 06:00:49;;;;;;;1.95;1.25;;;-5.60;1.40;;;-5.25;100.00;95415.95;646525;212;32161;-73
2022/03/03 06:06:07;;;;;;;4.40;1.70;;;-5.30;1.40;;;-5.13;100.00;95411.97;646292;216;31530;-75
2022/03/03 06:08:57;;;;;;;1.20;0.98;;;-5.30;1.40;;;-5.04;100.00;95415.47;646580;212;31576;-76
2022/03/03 06:11:47;;;;;;;1.40;1.20;;;-5.20;1.40;;;-5.01;100.00;95418.72;648300;216;31579;-78
2022/03/03 06:14:38;;;;;;;1.85;1.00;;;-5.20;1.40;;;-5.06;100.00;95414.63;646764;212;32220;-75
2022/03/03 06:17:20;;;;;;;2.20;1.50;;;-5.30;1.40;;;-4.98;100.00;95410.09;646598;212;31849;-74
2022/03/03 06:20:04;;;;;;;1.20;0.90;;;-5.20;1.40;;;-4.84;100.00;95418.63;643336;215;31823;-77
2022/03/03 06:22:48;;;;;;;3.17;1.08;;;-5.00;1.40;;;-4.70;100.00;95410.97;646205;212;42211;-73
2022/03/03 06:25:31;;;;;;;1.70;1.50;;;-4.90;1.40;;;-4.60;100.00;95414.99;647289;212;31543;-78
2022/03/03 06:28:19;;;;;;;3.70;1.20;;;-4.90;1.40;;;-4.47;100.00;95411.28;646289;216;31544;-75
2022/03/03 06:31:06;;;;;;;3.10;1.20;;;-4.80;1.40;;;-4.29;100.00;95410.98;646613;216;31557;-74
2022/03/03 06:35:53;;;;;;;5.05;1.70;;;-4.50;1.40;;;-4.13;100.00;95403.77;647024;212;31560;-78
2022/03/03 06:38:47;;;;;;;1.02;0.90;;;-4.40;1.40;;;-4.11;100.00;95401.34;645736;216;31601;-74
2022/03/03 06:41:30;;;;;;;6.90;2.00;;;-4.40;1.40;;;-4.01;100.00;95391.53;646386;216;32123;-75
2022/03/03 06:44:11;;;;;;;1.70;1.20;;;-4.30;1.40;;;-3.93;100.00;95387.55;647968;212;32413;-73
2022/03/03 06:46:58;;;;;;;2.20;1.30;;;-4.20;1.40;;;-3.82;100.00;95384.06;619282;222;31858;-77
2022/03/03 06:49:47;;;;;;;0.80;0.80;;;-4.10;1.40;;;-3.64;100.00;95376.64;647141;216;31548;-73
2022/03/03 06:52:27;;;;;;;2.67;1.90;;;-4.00;1.40;;;-3.50;100.00;95375.62;618544;222;32068;-73
2022/03/03 06:55:10;;;;;;;1.98;1.50;;;-3.80;1.40;;;-3.36;100.00;95373.83;645813;216;31620;-74
2022/03/03 06:57:51;;;;;;;3.40;1.40;;;-3.60;1.40;;;-3.23;100.00;95369.09;646190;212;31673;-76
2022/03/03 07:00:39;;;;;;;4.15;2.37;;;-3.50;1.40;;;-3.00;100.00;95368.60;648070;213;31597;-77
2022/03/03 07:03:21;;;;;;;2.40;1.40;;;-3.40;1.40;;;-2.84;100.00;95368.60;648082;212;31573;-77
2022/03/03 07:06:04;;;;;;;4.28;2.00;;;-3.20;1.40;;;-2.65;100.00;95376.16;647087;212;31753;-73
2022/03/03 07:08:52;;;;;;;1.42;1.30;;;-3.00;1.40;;;-2.41;100.00;95382.00;619581;222;31901;-78
2022/03/03 07:11:36;;;;;;;2.50;1.87;;;-2.80;1.40;;;-2.22;100.00;95372.20;645140;216;31619;-73
2022/03/03 07:14:21;;;;;;;3.80;3.15;;;-2.60;1.40;;;-2.03;100.00;95372.80;620588;226;31909;-73
2022/03/03 07:17:13;;;;;;;3.37;2.55;;;-2.40;1.40;;;-1.80;100.00;95368.19;646238;212;31550;-77
2022/03/03 07:20:04;;;;;;;5.03;2.90;;;-2.20;1.40;;;-1.61;100.00;95368.64;647072;212;31566;-77
2022/03/03 07:23:00;;;;;;;3.83;2.20;;;-1.90;1.40;;;-1.28;100.00;95360.27;646642;216;31645;-76
2022/03/03 07:25:41;;;;;;;4.60;2.30;;;-1.60;1.40;;;-1.16;100.00;95358.08;646288;216;31536;-75
2022/03/03 07:28:25;;;;;;;4.10;2.60;;;-1.50;1.40;;;-1.10;100.00;95358.44;619477;222;31924;-77
2022/03/03 07:31:07;;;;;;;2.45;1.92;;;-1.50;1.40;;;-1.04;100.00;95354.14;620379;222;32221;-77
2022/03/03 07:35:57;;;;;;;3.60;2.85;;;-1.40;1.40;;;-0.86;100.00;95345.34;648807;216;31613;-77
2022/03/03 07:38:42;;;;;;;4.40;3.10;;;-1.20;1.40;;;-0.70;100.00;95339.88;648018;216;31687;-78
2022/03/03 07:41:30;;;;;;;3.12;2.80;;;-1.10;1.40;;;-0.56;100.00;95337.32;646966;216;31709;-74
2022/03/03 07:44:18;;;;;;;5.20;3.45;;;-1.00;1.40;;;-0.41;100.00;95339.29;629684;221;42419;-76
2022/03/03 07:47:01;;;;;;;5.28;2.78;;;-0.80;1.40;;;-0.19;100.00;95337.66;647460;216;31747;-78
2022/03/03 07:49:42;;;;;;;6.55;3.40;;;-0.60;1.40;;;-0.05;100.00;95336.14;646490;213;31609;-77
2022/03/03 07:52:30;;;;;;;6.10;4.00;;;-0.40;1.40;;;0.14;100.00;95340.16;647197;216;31662;-77
2022/03/03 07:55:13;;;;;;;5.72;3.40;;;-0.30;1.40;;;0.36;100.00;95342.55;646811;213;31546;-75
2022/03/03 07:57:59;;;;;;;4.35;2.92;;;-0.10;1.40;;;0.50;100.00;95347.86;618934;222;31930;-77
2022/03/03 08:00:44;;;;;;;3.15;2.95;;;0.10;1.40;;;0.88;100.00;95345.05;646583;216;32271;-77
2022/03/03 08:03:25;;;;;;;3.07;2.77;;;0.30;1.40;;;1.20;100.00;95339.31;647423;212;42844;-76
2022/03/03 08:06:07;;;;;;;5.85;4.12;;;0.50;1.40;;;1.49;100.00;95339.45;643975;212;31737;-76
2022/03/03 08:08:51;;;;;;;4.50;3.90;;;0.70;1.40;;;1.51;100.00;95347.22;646620;216;31704;-74
2022/03/03 08:11:35;;;;;;;4.90;3.20;;;0.90;1.40;;;1.70;100.00;95351.88;647056;216;42730;-75
2022/03/03 08:14:16;;;;;;;3.87;3.20;;;1.10;1.40;;;1.97;100.00;95355.23;647658;212;31602;-77
2022/03/03 08:16:58;;;;;;;5.45;4.12;;;1.30;1.40;;;2.27;100.00;95362.78;641741;217;31536;-76
2022/03/03 08:19:41;;;;;;;4.80;4.30;;;1.50;1.40;;;2.38;100.00;95356.34;646839;216;42167;-76
2022/03/03 08:22:24;;;;;;;3.87;3.58;;;1.70;1.40;;;2.50;100.00;95356.14;646663;216;31590;-76
2022/03/03 08:25:08;;;;;;;5.18;3.50;;;1.80;1.40;;;2.71;100.00;95360.23;648118;216;31702;-76
2022/03/03 08:27:48;;;;;;;4.68;4.05;;;2.00;1.40;;;3.13;100.00;95367.82;647190;212;31747;-76
2022/03/03 08:30:29;;;;;;;4.15;3.22;;;2.20;1.40;;;3.54;100.00;95361.23;647848;216;31566;-76
2022/03/03 08:35:54;;;;;;;4.43;4.03;;;2.80;1.40;;;3.88;100.00;95354.88;618693;226;32556;-76
2022/03/03 08:38:36;;;;;;;5.53;4.65;;;2.80;1.40;;;3.94;100.00;95354.76;646030;216;32717;-77
2022/03/03 08:41:18;;;;;;;5.15;4.65;;;2.60;1.40;;;3.74;100.00;95355.16;648351;216;42615;-77
2022/03/03 08:44:07;;;;;;;4.10;3.65;;;2.80;1.40;;;3.35;100.00;95349.55;646141;216;31679;-76
2022/03/03 08:46:49;;;;;;;4.40;4.00;;;2.80;1.40;;;3.94;100.00;95348.91;647190;216;31638;-77
2022/03/03 08:49:31;;;;;;;5.30;3.87;;;2.90;1.40;;;4.03;100.00;95343.98;647551;212;31974;-77
2022/03/03 08:52:13;;;;;;;4.40;4.07;;;3.20;1.40;;;4.29;100.00;95338.66;618258;226;32005;-74
2022/03/03 08:55:01;;;;;;;4.10;3.33;;;3.50;1.40;;;5.03;100.00;95336.17;647712;212;31554;-77
2022/03/03 09:00:17;;;;;;;7.25;4.82;;;4.10;1.40;;;5.59;100.00;95343.37;620333;226;31882;-76
2022/03/03 09:02:59;;;;;;;4.78;3.85;;;4.30;1.40;;;5.89;100.00;95329.22;646827;216;32266;-77
2022/03/03 09:05:41;;;;;;;5.97;4.85;;;4.80;1.40;;;6.22;100.00;95327.53;619464;222;33093;-77
2022/03/03 09:08:23;;;;;;;8.40;4.55;;;4.80;1.40;;;6.48;96.90;95330.59;646260;216;31559;-77
2022/03/03 09:13:39;;;;;;;5.47;4.87;;;7.70;1.40;;;9.89;82.41;95311.18;619120;222;31937;-78
2022/03/03 09:16:23;;;;;;;7.93;5.87;;;11.20;1.40;;;11.65;71.71;95311.17;647887;216;31715;-74
2022/03/03 09:19:05;;;;;;;8.45;5.65;;;13.10;1.40;;;13.79;66.05;95299.38;647030;216;31523;-75
2022/03/03 09:21:46;;;;;;;10.60;5.62;;;13.90;1.40;;;14.60;58.83;95298.37;618236;226;32467;-74
2022/03/03 09:24:30;;;;;;;8.00;6.05;;;14.60;1.40;;;15.74;59.55;95295.17;647441;216;31579;-77
2022/03/03 09:27:18;;;;;;;9.43;6.12;;;14.10;1.40;;;17.33;52.42;95288.91;635514;220;31981;-74
2022/03/03 09:30:02;;;;;;;6.60;5.62;;;14.00;1.40;;;19.33;53.36;95288.70;647142;216;31619;-75
2022/03/03 09:32:46;;;;;;;7.07;6.10;;;15.40;1.40;;;18.99;51.77;95283.28;647173;212;31576;-76
2022/03/03 09:35:57;;;;;;;6.70;5.80;;;15.60;1.40;;;20.78;45.24;95287.53;646141;216;31562;-75
2022/03/03 09:38:45;;;;;;;6.70;5.70;;;16.10;1.40;;;20.54;39.32;95289.41;640805;216;32348;-76
2022/03/03 09:41:34;;;;;;;6.28;5.62;;;16.00;1.40;;;19.09;46.23;95291.00;646776;216;42538;-75
2022/03/03 09:44:15;;;;;;;5.87;5.20;;;15.40;1.40;;;18.50;38.87;95290.42;646546;212;31525;-75
2022/03/03 09:46:57;;;;;;;7.25;5.72;;;15.50;1.40;;;22.29;38.24;95289.23;619256;222;31881;-75
2022/03/03 09:49:39;;;;;;;7.70;5.97;;;15.90;1.40;;;20.18;38.92;95291.78;646750;216;31597;-75
2022/03/03 09:52:20;;;;;;;5.85;5.12;;;15.90;1.40;;;21.76;38.77;95284.83;646974;216;31627;-75
2022/03/03 09:55:05;;;;;;;6.62;5.53;;;16.70;1.40;;;22.82;39.87;95277.09;646050;212;31542;-76
2022/03/03 09:57:47;;;;;;;5.40;4.90;;;16.90;1.40;;;21.21;32.81;95293.63;647672;216;31692;-76
2022/03/03 10:00:33;;;;;;;7.05;5.70;;;15.90;1.40;;;23.26;35.32;95289.77;631542;222;31784;-76
2022/03/03 10:03:18;;;;;;;6.37;5.78;;;16.80;1.40;;;24.52;34.35;95287.66;645532;216;31546;-75
2022/03/03 10:06:00;;;;;;;6.47;5.75;;;17.00;1.40;;;24.63;31.73;95290.80;647512;216;31770;-73
2022/03/03 10:11:23;;;;;;;6.45;5.70;;;16.70;1.40;;;23.68;32.41;95287.22;646502;212;42167;-75
2022/03/03 10:14:05;;;;;;;7.03;6.28;;;17.10;1.40;;;21.90;30.83;95285.08;619710;226;42582;-76
2022/03/03 10:16:47;;;;;;;6.70;5.75;;;16.90;99.90;;;21.47;34.68;95289.06;619373;226;31898;-75
2022/03/03 10:19:29;;;;;;;7.00;6.30;;;17.10;1.40;;;21.20;30.96;95300.22;647177;212;31618;-75
2022/03/03 10:22:13;;;;;;;7.90;6.15;;;17.50;1.40;;;23.46;31.62;95297.57;619796;222;31928;-78
2022/03/03 10:24:57;;;;;;;6.70;6.00;;;17.10;1.40;;;22.78;32.32;95301.52;646615;212;31558;-75
2022/03/03 10:27:45;;;;;;;7.10;6.45;;;17.10;1.40;;;25.06;30.63;95294.51;646917;216;31605;-77
2022/03/03 10:30:33;;;;;;;6.60;6.00;;;17.90;99.90;;;23.57;28.93;95289.46;646393;216;31991;-75
2022/03/03 10:36:03;;;;;;;8.85;6.30;;;17.70;99.90;;;21.18;31.41;95290.20;619618;226;31878;-73
2022/03/03 10:38:45;;;;;;;7.72;6.03;;;16.60;99.90;;;23.77;29.74;95284.02;647182;216;31631;-75
2022/03/03 10:41:40;;;;;;;8.82;6.30;;;18.20;99.90;;;23.53;30.63;95283.91;618622;226;31989;-77
2022/03/03 10:47:07;;;;;;;6.20;5.60;;;18.50;99.90;;;26.14;25.43;95275.79;647180;216;31545;-74
2022/03/03 10:49:48;;;;;;;6.05;4.90;;;18.70;99.90;;;25.92;26.83;95270.80;646104;216;31711;-75
2022/03/03 10:52:39;;;;;;;5.18;4.68;;;19.00;99.90;;;26.29;26.60;95266.32;619073;222;32189;-77
2022/03/03 10:55:23;;;;;;;5.50;4.80;;;18.70;99.90;;;23.86;23.69;95271.11;645755;216;31788;-75
2022/03/03 10:58:11;;;;;;;5.18;4.68;;;18.50;99.90;;;24.01;26.00;95267.46;642971;215;32017;-76
2022/03/03 11:00:55;;;;;;;5.50;4.85;;;18.60;99.90;;;21.72;24.00;95263.77;645360;212;42205;-73
2022/03/03 11:03:44;;;;;;;4.05;3.65;;;17.40;99.90;;;22.57;23.36;95252.86;646396;216;31568;-77
2022/03/03 11:06:24;;;;;;;5.22;4.72;;;17.60;99.90;;;24.64;25.25;95251.70;646489;216;31713;-77
2022/03/03 11:09:12;;;;;;;5.03;4.53;;;18.10;99.90;;;26.30;25.21;95242.30;646552;216;31572;-76
2022/03/03 11:11:54;;;;;;;5.10;4.70;;;18.50;99.90;;;27.32;21.21;95235.62;644917;216;31599;-75
2022/03/03 11:14:36;;;;;;;5.18;4.68;;;18.90;99.90;;;24.32;23.16;95238.91;646064;216;31703;-75
2022/03/03 11:17:17;;;;;;;5.22;4.72;;;17.90;99.90;;;26.90;23.18;95230.88;646437;216;31677;-73
2022/03/03 11:20:06;;;;;;;6.50;5.18;;;19.70;99.90;;;27.55;22.32;95225.53;645956;212;31593;-76
2022/03/03 11:22:54;;;;;;;6.18;5.57;;;20.10;1.00;;;28.60;21.48;95226.86;646977;216;32213;-75
2022/03/03 11:25:38;;;;;;;6.32;4.75;;;19.80;1.00;;;27.24;22.49;95221.19;618065;222;31907;-73
2022/03/03 11:28:26;;;;;;;6.18;5.60;;;19.10;99.90;;;25.71;20.02;95225.86;631925;222;32545;-76
2022/03/03 11:35:56;;;;;;;5.47;4.72;;;17.90;99.90;;;27.75;20.72;95193.06;645755;216;42380;-75
2022/03/03 11:38:44;;;;;;;5.87;5.03;;;19.80;99.90;;;28.69;19.76;95195.02;646519;216;31713;-73
2022/03/03 11:41:25;;;;;;;5.80;5.30;;;20.40;99.90;;;27.85;19.75;95188.78;644759;216;31999;-73
2022/03/03 11:44:13;;;;;;;5.70;5.10;;;19.10;99.90;;;27.79;20.75;95179.43;646677;216;42363;-76
2022/03/03 11:47:00;;;;;;;5.85;5.25;;;20.00;99.90;;;29.42;20.55;95175.97;646656;216;31561;-74
2022/03/03 11:50:48;;;;;;;8.70;5.12;;;20.80;99.90;;;25.03;20.25;95182.81;646310;216;31592;-74
2022/03/03 11:53:30;;;;;;;5.70;5.20;;;18.80;99.90;;;27.88;20.41;95174.58;645821;216;31587;-73
2022/03/03 11:56:12;;;;;;;4.90;4.40;;;19.20;1.40;;;28.85;19.27;95182.97;646831;216;31557;-72
2022/03/03 11:58:53;;;;;;;5.12;4.62;;;20.10;99.90;;;27.37;21.13;95188.67;645663;216;31746;-75
2022/03/03 12:01:57;;;;;;;5.30;4.50;;;20.50;1.00;;;26.58;20.13;95188.73;619768;226;32033;-76
2022/03/03 12:04:38;;;;;;;5.12;4.72;;;19.50;99.90;;;24.79;20.39;95191.58;648097;216;32104;-77
2022/03/03 12:09:57;;;;;;;5.15;4.68;;;19.40;99.90;;;25.03;20.24;95184.72;647550;215;31566;-76
2022/03/03 12:15:24;;;;;;;5.50;4.60;;;18.80;99.90;;;28.67;19.06;95162.34;648248;212;31539;-77
2022/03/03 12:18:08;;;;;;;5.30;4.80;;;19.90;99.90;;;28.57;18.77;95167.55;619333;222;32306;-76
2022/03/03 12:20:48;;;;;;;5.03;4.62;;;20.70;99.90;;;26.71;19.53;95165.22;647482;212;31620;-76
2022/03/03 12:23:32;;;;;;;5.20;4.47;;;20.30;99.90;;;26.61;19.53;95163.75;646668;216;42216;-76
2022/03/03 12:26:13;;;;;;;4.28;3.80;;;20.70;1.00;;;27.99;18.65;95164.45;646724;216;42192;-76
2022/03/03 12:28:57;;;;;;;5.93;4.87;;;20.10;99.90;;;29.30;18.86;95158.41;620279;225;42627;-77